Time;durP1;ratioP1;P1;durP2;ratioP2;P2;SDS_P1;SDS_P2;PMS_P1;PMS_P2;Temp;Humidity;BMP_temperature;BMP_pressure;BME280_temperature;BME280_humidity;BME280_pressure;Samples;Min_cycle;Max_cycle;Signal;HPM_P1;HPM_P2
2024/01/10 00:02:00;;;;;;;71.60;29.98;;;;;;;-3.77;78.54;100859.53;4902012;29;20039;-82
2024/01/10 00:04:45;;;;;;;56.90;25.08;;;;;;;-3.76;77.07;100855.16;4896073;29;20040;-82
2024/01/10 00:07:36;;;;;;;77.05;32.03;;;;;;;-3.77;76.77;100869.94;4890654;29;20039;-83
2024/01/10 00:10:22;;;;;;;104.82;38.50;;;;;;;-3.76;77.27;100866.41;4908043;29;20047;-84
2024/01/10 00:13:07;;;;;;;56.05;22.17;;;;;;;-3.77;76.09;100861.31;4900023;29;20366;-83
2024/01/10 00:15:58;;;;;;;26.33;12.35;;;;;;;-3.80;76.26;100874.50;4894483;29;20040;-83
2024/01/10 00:18:53;;;;;;;30.02;14.45;;;;;;;-3.80;77.14;100864.94;4913226;29;20047;-84
2024/01/10 00:21:38;;;;;;;24.30;11.27;;;;;;;-3.80;76.89;100864.09;4907478;29;20047;-81
2024/01/10 00:24:24;;;;;;;21.75;10.80;;;;;;;-3.81;75.81;100872.84;4900450;29;20346;-83
2024/01/10 00:27:10;;;;;;;16.98;9.77;;;;;;;-3.85;75.28;100864.41;4900404;29;20047;-83
2024/01/10 00:29:56;;;;;;;29.40;13.88;;;;;;;-3.84;76.22;100863.47;4906571;29;20048;-81
2024/01/10 00:32:43;;;;;;;27.75;14.05;;;;;;;-3.83;76.43;100859.09;4887489;29;20401;-81
2024/01/10 00:35:29;;;;;;;22.10;12.60;;;;;;;-3.79;77.00;100864.00;4906592;29;20043;-83
2024/01/10 00:38:14;;;;;;;26.80;12.90;;;;;;;-3.78;76.72;100876.06;4892671;29;20354;-84
2024/01/10 00:41:00;;;;;;;26.23;13.30;;;;;;;-3.79;77.19;100870.94;4899516;29;20048;-80
2024/01/10 00:43:46;;;;;;;26.45;13.05;;;;;;;-3.81;77.04;100867.63;4893272;29;20047;-83
2024/01/10 00:46:31;;;;;;;24.17;12.25;;;;;;;-3.80;77.92;100869.28;4896650;29;20039;-82
2024/01/10 00:49:17;;;;;;;20.73;11.75;;;;;;;-3.80;79.81;100869.28;4896931;29;20056;-84
2024/01/10 00:52:03;;;;;;;22.60;11.88;;;;;;;-3.79;77.23;100882.19;4896063;29;20051;-81
2024/01/10 00:54:48;;;;;;;17.95;11.48;;;;;;;-3.83;77.71;100874.69;4895136;29;20450;-83
2024/01/10 00:57:34;;;;;;;35.17;15.05;;;;;;;-3.87;77.83;100868.03;4882343;29;20044;-81
2024/01/10 01:00:19;;;;;;;61.15;21.20;;;;;;;-3.84;76.72;100880.81;4882320;29;20043;-83
2024/01/10 01:03:06;;;;;;;26.02;11.63;;;;;;;-3.88;76.60;100881.94;4905965;29;20055;-83
2024/01/10 01:05:51;;;;;;;32.75;15.23;;;;;;;-3.87;77.73;100884.44;4911421;29;20383;-80
2024/01/10 01:08:37;;;;;;;29.38;14.40;;;;;;;-3.85;78.15;100882.59;4892427;29;20048;-84
2024/01/10 01:11:22;;;;;;;13.05;7.57;;;;;;;-3.88;76.31;100885.38;4905031;29;20039;-82
2024/01/10 01:14:08;;;;;;;10.48;6.28;;;;;;;-3.97;76.02;100870.38;4919749;29;20043;-82
2024/01/10 01:16:54;;;;;;;12.43;7.75;;;;;;;-3.95;76.21;100871.09;4905198;29;20066;-81
2024/01/10 01:19:39;;;;;;;16.65;9.48;;;;;;;-3.94;77.01;100875.38;4897870;29;20438;-83
2024/01/10 01:22:25;;;;;;;15.25;9.32;;;;;;;-3.93;75.54;100874.44;4896896;29;20055;-83
2024/01/10 01:25:14;;;;;;;16.55;8.85;;;;;;;-3.93;76.27;100864.03;4897365;29;20450;-83
2024/01/10 01:27:58;;;;;;;13.63;7.63;;;;;;;-3.97;76.57;100866.00;4897426;29;20389;-84
2024/01/10 01:30:44;;;;;;;15.57;8.88;;;;;;;-4.00;75.66;100867.97;4894700;29;20051;-82
2024/01/10 01:33:30;;;;;;;18.58;8.27;;;;;;;-4.02;76.47;100856.81;4897800;29;20381;-82
2024/01/10 01:36:15;;;;;;;13.68;8.55;;;;;;;-3.99;75.94;100864.41;4903217;29;20047;-81
2024/01/10 01:39:01;;;;;;;17.02;10.25;;;;;;;-3.98;76.98;100861.75;4884077;29;20036;-81
2024/01/10 01:41:46;;;;;;;15.13;9.68;;;;;;;-3.97;76.80;100867.78;4896836;29;20397;-82
2024/01/10 01:44:36;;;;;;;16.63;9.38;;;;;;;-3.93;76.41;100873.59;4917316;29;20382;-82
2024/01/10 01:47:21;;;;;;;25.67;13.90;;;;;;;-3.94;76.01;100867.56;4910034;29;20048;-82
2024/01/10 01:50:07;;;;;;;13.43;7.70;;;;;;;-4.00;76.24;100860.16;4896539;29;20454;-82
2024/01/10 01:52:52;;;;;;;21.25;10.90;;;;;;;-3.98;75.57;100860.88;4883635;29;20078;-82
2024/01/10 01:55:38;;;;;;;18.23;9.80;;;;;;;-3.98;75.63;100861.75;4903497;29;20385;-81
2024/01/10 01:58:24;;;;;;;16.73;9.68;;;;;;;-3.99;75.54;100857.47;4897306;29;20437;-81
2024/01/10 02:01:10;;;;;;;19.85;11.80;;;;;;;-3.98;76.83;100850.50;4896327;29;20062;-81
2024/01/10 02:03:56;;;;;;;22.50;12.07;;;;;;;-4.02;77.42;100849.03;4913656;29;20044;-81
2024/01/10 02:06:41;;;;;;;25.63;14.07;;;;;;;-4.01;78.55;100855.88;4904217;29;20040;-83
2024/01/10 02:09:27;;;;;;;25.20;13.65;;;;;;;-4.01;78.80;100850.69;4902002;29;20449;-83
2024/01/10 02:12:12;;;;;;;18.88;10.05;;;;;;;-4.01;77.83;100846.34;4902903;29;20404;-82
2024/01/10 02:14:58;;;;;;;14.75;9.77;;;;;;;-3.96;78.17;100848.66;4897550;29;20057;-83
2024/01/10 02:17:43;;;;;;;16.40;10.23;;;;;;;-3.94;77.09;100857.19;4905115;29;20476;-82
2024/01/10 02:20:29;;;;;;;18.52;9.95;;;;;;;-3.98;75.59;100846.16;4897365;29;20377;-82
2024/01/10 02:23:14;;;;;;;15.50;9.27;;;;;;;-4.00;76.61;100845.41;4897051;29;20051;-81
2024/01/10 02:26:01;;;;;;;15.27;9.10;;;;;;;-4.01;75.75;100846.34;4903743;29;20466;-82
2024/01/10 02:28:46;;;;;;;20.90;10.45;;;;;;;-4.04;76.35;100836.16;4903990;29;20477;-83
2024/01/10 02:31:31;;;;;;;18.88;11.00;;;;;;;-4.07;75.97;100835.53;4895645;29;20413;-82
2024/01/10 02:34:17;;;;;;;16.35;9.18;;;;;;;-4.09;76.55;100834.78;4916475;29;20043;-80
2024/01/10 02:37:03;;;;;;;15.98;8.48;;;;;;;-4.10;76.68;100839.13;4916563;29;20055;-83
2024/01/10 02:39:48;;;;;;;15.55;9.07;;;;;;;-4.09;77.03;100832.19;4922809;29;20358;-82
2024/01/10 02:42:34;;;;;;;16.30;8.52;;;;;;;-4.16;76.02;100834.31;4906012;29;20044;-82
2024/01/10 02:45:19;;;;;;;20.35;10.27;;;;;;;-4.18;76.67;100833.56;4898861;29;20385;-82
2024/01/10 02:48:05;;;;;;;15.63;9.25;;;;;;;-4.14;76.54;100835.03;4900644;29;20377;-81
2024/01/10 02:50:50;;;;;;;16.20;9.38;;;;;;;-4.11;77.12;100831.44;4906489;29;20047;-81
2024/01/10 02:53:36;;;;;;;14.98;9.60;;;;;;;-4.10;76.11;100830.53;4899635;29;20044;-83
2024/01/10 02:56:22;;;;;;;16.55;9.63;;;;;;;-4.07;76.12;100833.75;4899946;29;20381;-81
2024/01/10 02:59:07;;;;;;;16.65;9.23;;;;;;;-4.06;76.31;100842.38;4906157;29;20051;-82
2024/01/10 03:01:53;;;;;;;15.02;8.65;;;;;;;-4.10;76.66;100831.34;4899861;29;20426;-82
2024/01/10 03:04:37;;;;;;;14.23;7.95;;;;;;;-4.12;76.22;100824.56;4897286;29;20039;-83
2024/01/10 03:07:24;;;;;;;15.32;8.50;;;;;;;-4.14;76.73;100826.44;4889703;29;20052;-81
2024/01/10 03:10:09;;;;;;;16.27;8.88;;;;;;;-4.14;75.69;100824.66;4897013;29;20476;-81
2024/01/10 03:12:55;;;;;;;16.55;9.45;;;;;;;-4.14;77.15;100823.81;4903129;29;20039;-82
2024/01/10 03:15:41;;;;;;;16.38;9.02;;;;;;;-4.13;76.60;100825.53;4889489;29;20377;-84
2024/01/10 03:18:27;;;;;;;17.38;9.55;;;;;;;-4.12;77.14;100827.19;4882412;29;20484;-83
2024/01/10 03:21:13;;;;;;;16.52;9.40;;;;;;;-4.11;76.02;100819.28;4901583;29;20051;-82
2024/01/10 03:23:59;;;;;;;15.43;8.82;;;;;;;-4.11;76.48;100823.63;4894709;29;20385;-82
2024/01/10 03:26:44;;;;;;;17.20;9.57;;;;;;;-4.11;75.91;100826.22;4895034;29;20051;-83
2024/01/10 03:29:30;;;;;;;19.65;10.68;;;;;;;-4.08;75.89;100820.84;4896050;29;20088;-83
2024/01/10 03:32:15;;;;;;;20.92;10.77;;;;;;;-4.10;76.96;100820.13;4876916;29;20385;-83
2024/01/10 03:35:01;;;;;;;15.55;8.95;;;;;;;-4.12;75.37;100816.78;4894993;29;20446;-83
2024/01/10 03:37:47;;;;;;;13.38;8.93;;;;;;;-4.13;76.04;100815.97;4883833;29;20052;-82
2024/01/10 03:40:32;;;;;;;21.95;10.15;;;;;;;-4.17;76.48;100814.47;4914386;29;20397;-81
2024/01/10 03:43:18;;;;;;;17.75;10.23;;;;;;;-4.22;76.34;100812.16;4895340;29;20441;-83
2024/01/10 03:46:03;;;;;;;16.98;9.00;;;;;;;-4.27;75.85;100816.81;4881904;29;20396;-83
2024/01/10 03:48:49;;;;;;;15.48;8.45;;;;;;;-4.34;75.53;100818.13;4908100;29;20114;-82
2024/01/10 03:51:34;;;;;;;15.13;8.95;;;;;;;-4.42;76.50;100816.00;4895313;29;20441;-81
2024/01/10 03:54:20;;;;;;;18.42;9.20;;;;;;;-4.48;76.56;100815.53;4895193;29;20442;-82
2024/01/10 03:57:06;;;;;;;13.77;8.20;;;;;;;-4.51;76.10;100815.72;4895635;29;20353;-82
2024/01/10 03:59:51;;;;;;;14.98;8.68;;;;;;;-4.58;76.50;100811.84;4907414;29;20047;-82
2024/01/10 04:02:40;;;;;;;12.85;7.53;;;;;;;-4.62;76.33;100812.97;4894524;29;20039;-82
2024/01/10 04:05:25;;;;;;;12.15;6.00;;;;;;;-4.59;76.97;100813.59;4884648;29;20075;-82
2024/01/10 04:08:11;;;;;;;15.23;8.73;;;;;;;-4.62;76.57;100807.78;4879134;29;20048;-83
2024/01/10 04:10:57;;;;;;;18.63;10.43;;;;;;;-4.65;76.69;100814.81;4884907;29;20453;-82
2024/01/10 04:13:44;;;;;;;16.65;9.35;;;;;;;-4.70;77.25;100816.88;4873778;29;20044;-83
2024/01/10 04:16:30;;;;;;;21.55;11.38;;;;;;;-4.72;77.12;100817.88;4877951;29;20064;-84
2024/01/10 04:19:15;;;;;;;18.90;11.23;;;;;;;-4.76;78.32;100821.59;4876298;29;20040;-82
2024/01/10 04:22:01;;;;;;;23.25;12.05;;;;;;;-4.76;77.35;100822.41;4863294;29;20053;-81
2024/01/10 04:24:46;;;;;;;26.45;13.70;;;;;;;-4.79;78.13;100830.38;4855937;29;20041;-81
2024/01/10 04:27:31;;;;;;;25.00;13.82;;;;;;;-4.84;78.90;100824.63;4864478;29;20363;-82
2024/01/10 04:30:16;;;;;;;26.25;14.85;;;;;;;-4.85;78.73;100829.94;4868864;29;20040;-83
2024/01/10 04:33:02;;;;;;;18.50;10.32;;;;;;;-4.90;78.56;100825.81;4869331;29;20049;-83
2024/01/10 04:35:48;;;;;;;18.63;9.50;;;;;;;-4.90;78.50;100827.59;4864670;29;20049;-83
2024/01/10 04:38:34;;;;;;;26.48;12.68;;;;;;;-4.96;78.05;100825.34;4866943;29;20072;-84
2024/01/10 04:41:20;;;;;;;21.67;11.88;;;;;;;-5.00;78.84;100834.25;4868195;29;20048;-83
2024/01/10 04:44:05;;;;;;;17.17;9.60;;;;;;;-5.08;78.94;100831.25;4867610;29;20048;-84
2024/01/10 04:46:51;;;;;;;17.15;9.48;;;;;;;-5.22;79.09;100821.72;4868683;29;20045;-84
2024/01/10 04:49:36;;;;;;;14.82;8.73;;;;;;;-5.26;79.45;100825.41;4874368;29;20375;-82
2024/01/10 04:52:21;;;;;;;15.77;9.15;;;;;;;-5.30;80.17;100829.91;4866832;29;20451;-83
2024/01/10 04:55:07;;;;;;;19.88;9.43;;;;;;;-5.32;79.94;100829.19;4868513;29;20381;-82
2024/01/10 04:57:53;;;;;;;19.10;9.25;;;;;;;-5.33;79.77;100834.44;4873625;29;20458;-82
2024/01/10 05:00:38;;;;;;;19.88;10.63;;;;;;;-5.36;79.61;100833.72;4867111;29;20052;-83
2024/01/10 05:03:24;;;;;;;21.10;12.02;;;;;;;-5.40;80.41;100837.38;4867583;29;20052;-82
2024/01/10 05:06:10;;;;;;;24.75;13.98;;;;;;;-5.43;80.56;100847.09;4873150;29;20040;-83
2024/01/10 05:08:58;;;;;;;24.58;12.98;;;;;;;-5.50;80.08;100840.59;4873847;29;20045;-83
2024/01/10 05:11:47;;;;;;;24.38;12.80;;;;;;;-5.54;80.40;100841.72;4873528;29;20052;-83
2024/01/10 05:14:32;;;;;;;24.02;13.00;;;;;;;-5.55;80.59;100847.78;4873632;29;20044;-81
2024/01/10 05:17:17;;;;;;;26.45;13.20;;;;;;;-5.61;81.80;100852.41;4860231;29;20053;-81
2024/01/10 05:20:04;;;;;;;27.02;15.52;;;;;;;-5.71;81.79;100853.84;4872721;29;20398;-82
2024/01/10 05:22:48;;;;;;;28.05;14.73;;;;;;;-5.83;82.40;100865.72;4873285;29;20044;-82
2024/01/10 05:25:34;;;;;;;31.00;15.50;;;;;;;-5.92;81.80;100866.22;4873193;29;20447;-82
2024/01/10 05:28:20;;;;;;;32.20;15.95;;;;;;;-6.03;83.14;100858.22;4873946;29;20049;-83
2024/01/10 05:31:06;;;;;;;34.33;17.88;;;;;;;-6.10;83.09;100859.50;4852395;29;20049;-83
2024/01/10 05:33:51;;;;;;;34.47;17.70;;;;;;;-6.12;83.32;100856.97;4867606;29;20040;-83
2024/01/10 05:36:36;;;;;;;30.83;16.30;;;;;;;-6.16;84.01;100855.47;4868294;29;20084;-83
2024/01/10 05:39:22;;;;;;;32.05;15.63;;;;;;;-6.23;83.71;100861.06;4868091;29;20045;-83
2024/01/10 05:42:08;;;;;;;24.95;14.50;;;;;;;-6.26;83.93;100856.06;4868057;29;20057;-82
2024/01/10 05:44:54;;;;;;;25.42;13.93;;;;;;;-6.31;83.83;100856.28;4861323;29;20399;-83
2024/01/10 05:47:39;;;;;;;25.27;14.70;;;;;;;-6.36;84.25;100851.38;4866531;29;20041;-83
2024/01/10 05:50:24;;;;;;;27.33;14.40;;;;;;;-6.37;84.46;100849.69;4867968;29;20442;-83
2024/01/10 05:53:12;;;;;;;27.42;14.70;;;;;;;-6.34;84.87;100853.88;4867386;29;20045;-83
2024/01/10 05:55:58;;;;;;;28.90;15.23;;;;;;;-6.36;84.77;100863.44;4875223;29;20049;-85
2024/01/10 05:58:43;;;;;;;31.15;16.15;;;;;;;-6.38;85.12;100857.53;4868657;29;20045;-84
2024/01/10 06:01:29;;;;;;;30.13;16.17;;;;;;;-6.42;84.34;100856.88;4871402;29;20044;-83
2024/01/10 06:04:14;;;;;;;32.92;17.02;;;;;;;-6.44;85.40;100860.44;4877955;29;20052;-83
2024/01/10 06:07:00;;;;;;;28.67;16.38;;;;;;;-6.46;85.46;100870.03;4883341;29;20040;-83
2024/01/10 06:09:46;;;;;;;32.05;16.13;;;;;;;-6.44;85.83;100870.81;4871330;29;20032;-82
2024/01/10 06:12:31;;;;;;;35.60;17.50;;;;;;;-6.40;85.67;100872.31;4888757;29;20048;-81
2024/01/10 06:15:17;;;;;;;34.55;17.90;;;;;;;-6.28;85.63;100879.41;4890054;29;20390;-81
2024/01/10 06:18:03;;;;;;;30.45;15.00;;;;;;;-6.23;84.95;100881.78;4867921;29;20056;-82
2024/01/10 06:20:48;;;;;;;51.50;24.90;;;;;;;-6.19;84.38;100889.28;4872110;29;20462;-83
2024/01/10 06:23:34;;;;;;;52.63;23.85;;;;;;;-6.16;84.44;100896.06;4863330;29;20467;-83
2024/01/10 06:26:19;;;;;;;64.97;30.85;;;;;;;-6.15;84.03;100906.31;4854921;29;20045;-82
2024/01/10 06:29:04;;;;;;;60.72;30.35;;;;;;;-6.11;84.51;100905.25;4860672;29;20052;-81
2024/01/10 06:31:50;;;;;;;64.88;31.63;;;;;;;-6.08;83.94;100917.16;4859776;29;20447;-82
2024/01/10 06:34:36;;;;;;;61.08;31.73;;;;;;;-6.05;83.42;100922.19;4862365;29;20386;-81
2024/01/10 06:37:21;;;;;;;63.22;32.45;;;;;;;-5.95;83.04;100920.78;4860431;29;20458;-81
2024/01/10 06:40:07;;;;;;;49.33;25.02;;;;;;;-5.91;82.94;100930.03;4860486;29;20045;-81
2024/01/10 06:42:51;;;;;;;42.72;20.25;;;;;;;-5.80;82.34;100934.63;4860811;29;20387;-82
2024/01/10 06:45:36;;;;;;;46.70;22.23;;;;;;;-5.74;81.44;100933.44;4861093;29;20045;-84
2024/01/10 06:48:22;;;;;;;82.82;36.28;;;;;;;-5.70;81.91;100935.81;4867172;29;20053;-84
2024/01/10 06:51:14;;;;;;;64.90;32.45;;;;;;;-5.61;81.29;100948.25;4873503;29;20049;-82
2024/01/10 06:54:05;;;;;;;57.65;28.08;;;;;;;-5.51;81.53;100950.34;4858907;29;20040;-82
2024/01/10 06:56:51;;;;;;;49.90;24.85;;;;;;;-5.50;80.70;100958.03;4859624;29;20456;-83
2024/01/10 06:59:36;;;;;;;45.42;21.20;;;;;;;-5.49;80.59;100951.06;4847516;29;20037;-81
2024/01/10 07:02:23;;;;;;;51.78;25.23;;;;;;;-5.38;79.93;100965.13;4859804;29;20479;-83
2024/01/10 07:05:09;;;;;;;48.50;23.45;;;;;;;-5.35;80.40;100964.94;4859812;29;20479;-84
2024/01/10 07:07:55;;;;;;;51.38;21.40;;;;;;;-5.35;79.41;100967.53;4853148;29;20049;-85
2024/01/10 07:10:40;;;;;;;51.47;24.73;;;;;;;-5.22;79.77;100965.09;4867271;29;20456;-83
2024/01/10 07:13:26;;;;;;;46.45;22.63;;;;;;;-5.12;79.31;100973.19;4865122;29;20071;-82
2024/01/10 07:16:11;;;;;;;43.95;23.00;;;;;;;-5.02;79.24;100970.91;4863261;29;20386;-83
2024/01/10 07:18:56;;;;;;;42.05;20.75;;;;;;;-5.02;78.26;100966.56;4865744;29;20455;-82
2024/01/10 07:21:42;;;;;;;45.22;21.08;;;;;;;-4.86;76.87;100966.53;4858694;29;20402;-83
2024/01/10 07:24:27;;;;;;;47.10;24.25;;;;;;;-4.70;77.04;100972.53;4865359;29;20052;-83
2024/01/10 07:27:14;;;;;;;34.50;19.45;;;;;;;-4.56;76.93;100973.47;4864803;29;20049;-84
2024/01/10 07:30:02;;;;;;;37.78;20.25;;;;;;;-4.43;76.94;100972.63;4857317;29;20399;-82
2024/01/10 07:32:48;;;;;;;41.90;21.15;;;;;;;-4.41;75.61;100967.38;4851557;29;20040;-83
2024/01/10 07:35:33;;;;;;;40.22;19.55;;;;;;;-4.53;74.74;100981.91;4864010;29;20510;-82
2024/01/10 07:38:19;;;;;;;30.30;16.60;;;;;;;-4.44;76.99;100975.34;4872251;29;20459;-82
2024/01/10 07:41:04;;;;;;;42.28;20.33;;;;;;;-4.38;75.85;100974.97;4871549;29;20048;-84
2024/01/10 07:43:50;;;;;;;30.55;17.70;;;;;;;-4.60;75.98;100977.19;4872458;29;20045;-83
2024/01/10 07:46:38;;;;;;;28.92;15.20;;;;;;;-4.55;75.42;100981.16;4877245;29;20385;-83
2024/01/10 07:49:23;;;;;;;27.02;15.00;;;;;;;-4.54;76.50;100977.66;4874793;29;20048;-83
2024/01/10 07:52:08;;;;;;;32.88;16.92;;;;;;;-4.43;75.81;100971.81;4870388;29;20041;-82
2024/01/10 07:54:53;;;;;;;18.30;11.23;;;;;;;-4.54;75.05;100980.25;4880254;29;20047;-82
2024/01/10 07:57:39;;;;;;;29.83;14.25;;;;;;;-4.51;75.34;100977.47;4879750;29;20044;-82
2024/01/10 08:00:24;;;;;;;24.02;11.32;;;;;;;-4.54;75.70;100988.03;4860555;29;20044;-82
2024/01/10 08:03:10;;;;;;;23.23;11.38;;;;;;;-4.60;74.45;100982.38;4872370;29;20048;-82
2024/01/10 08:05:56;;;;;;;18.02;10.63;;;;;;;-4.58;74.34;100988.28;4873537;29;20040;-80
2024/01/10 08:08:41;;;;;;;30.58;16.80;;;;;;;-4.32;74.16;100984.19;4865397;29;20466;-81
2024/01/10 08:11:26;;;;;;;34.33;17.02;;;;;;;-4.08;74.73;100989.63;4884030;29;20041;-81
2024/01/10 08:14:12;;;;;;;38.67;19.95;;;;;;;-4.03;74.10;100983.25;4871810;29;20032;-83
2024/01/10 08:16:58;;;;;;;31.67;12.75;;;;;;;-4.13;73.90;100978.72;4866899;29;20044;-82
2024/01/10 08:19:43;;;;;;;44.30;24.77;;;;;;;-4.03;73.71;100980.66;4871598;29;20454;-84
2024/01/10 08:22:30;;;;;;;32.47;15.70;;;;;;;-4.15;73.57;100988.34;4866299;29;20495;-82
2024/01/10 08:25:15;;;;;;;31.20;15.23;;;;;;;-4.20;74.21;100983.41;4860981;29;20053;-82
2024/01/10 08:28:02;;;;;;;39.95;18.10;;;;;;;-4.20;74.54;100975.63;4879398;29;20446;-82
2024/01/10 08:30:47;;;;;;;49.95;25.15;;;;;;;-4.26;75.84;100976.84;4863658;29;20052;-81
2024/01/10 08:33:33;;;;;;;49.05;25.20;;;;;;;-4.10;75.00;100975.94;4879352;29;20443;-81
2024/01/10 08:36:21;;;;;;;47.53;25.45;;;;;;;-4.04;75.27;100985.91;4863870;29;20036;-83
2024/01/10 08:39:06;;;;;;;42.45;22.02;;;;;;;-4.08;74.19;100979.25;4874414;29;20377;-83
2024/01/10 08:41:52;;;;;;;38.67;19.63;;;;;;;-4.08;74.23;100987.03;4867967;29;20467;-83
2024/01/10 08:44:38;;;;;;;37.13;20.40;;;;;;;-4.12;74.48;100980.38;4875233;29;20455;-82
2024/01/10 08:47:24;;;;;;;30.35;16.15;;;;;;;-4.20;74.32;100973.03;4860522;29;20045;-82
2024/01/10 08:50:10;;;;;;;36.78;18.90;;;;;;;-3.67;73.22;100981.06;4888942;29;20465;-84
2024/01/10 08:52:56;;;;;;;38.80;21.75;;;;;;;-3.31;72.21;100970.97;4889863;29;20381;-86
2024/01/10 08:55:48;;;;;;;34.05;18.70;;;;;;;-3.09;70.46;100954.00;4877891;29;20085;-87
2024/01/10 08:58:34;;;;;;;25.08;13.93;;;;;;;-3.01;69.74;100956.91;4870511;29;20390;-84
2024/01/10 09:01:20;;;;;;;34.15;17.83;;;;;;;-2.98;70.70;100961.09;4878510;29;20048;-82
2024/01/10 09:04:07;;;;;;;27.05;14.43;;;;;;;-2.77;70.93;100969.28;4869645;29;20048;-81
2024/01/10 09:06:52;;;;;;;30.40;16.83;;;;;;;-2.62;70.05;100961.28;4872068;29;20390;-80
2024/01/10 09:09:45;;;;;;;33.17;16.70;;;;;;;-2.41;69.67;100956.41;4869875;29;20043;-85
2024/01/10 09:13:26;;;;;;;28.23;15.82;;;;;;;-2.24;68.41;100973.47;4876737;29;20040;-84
2024/01/10 09:16:12;;;;;;;31.00;15.90;;;;;;;-2.07;68.09;100972.31;4872586;29;20447;-83
2024/01/10 09:18:58;;;;;;;32.67;15.18;;;;;;;-2.25;68.14;100961.41;4856776;29;20044;-83
2024/01/10 09:21:43;;;;;;;29.55;14.13;;;;;;;-2.15;68.66;100957.22;4866665;29;20040;-83
2024/01/10 09:24:35;;;;;;;25.30;12.57;;;;;;;-1.99;68.41;100959.59;4878337;29;20056;-88
2024/01/10 09:27:20;;;;;;;24.63;13.05;;;;;;;-2.01;67.38;100948.44;4878887;29;20438;-83
2024/01/10 09:30:08;;;;;;;26.10;13.23;;;;;;;-2.07;66.91;100948.88;4877096;29;20402;-83
2024/01/10 09:32:53;;;;;;;23.52;11.52;;;;;;;-2.17;67.82;100950.44;4878249;29;20039;-82
2024/01/10 09:35:39;;;;;;;27.38;14.43;;;;;;;-2.02;67.61;100953.78;4878548;29;20450;-84
2024/01/10 09:38:25;;;;;;;33.08;17.17;;;;;;;-1.70;67.42;100946.31;4860017;29;20060;-83
2024/01/10 09:41:13;;;;;;;22.98;13.07;;;;;;;-1.74;66.27;100944.88;4873488;29;20048;-84
2024/01/10 09:43:58;;;;;;;31.35;16.17;;;;;;;-1.64;66.13;100951.91;4886874;29;20462;-83
2024/01/10 09:46:49;;;;;;;31.65;17.25;;;;;;;-1.55;66.52;100947.81;4846875;29;20391;-81
2024/01/10 09:49:35;;;;;;;42.33;20.50;;;;;;;-1.53;64.61;100945.13;4875277;29;20048;-83
2024/01/10 09:52:26;;;;;;;82.05;33.50;;;;;;;-1.56;66.56;100937.53;4892418;29;20044;-85
2024/01/10 09:55:11;;;;;;;55.15;27.48;;;;;;;-1.58;66.83;100942.00;4880720;29;20048;-83
2024/01/10 09:57:56;;;;;;;33.78;18.92;;;;;;;-1.52;65.52;100942.41;4867029;29;20447;-84
2024/01/10 10:00:42;;;;;;;35.30;19.08;;;;;;;-1.43;66.17;100941.72;4865466;29;20051;-83
2024/01/10 10:03:28;;;;;;;50.47;24.35;;;;;;;-1.51;66.57;100941.44;4878684;29;20051;-85
2024/01/10 10:06:15;;;;;;;36.85;18.58;;;;;;;-1.68;66.74;100934.00;4873915;29;20045;-83
2024/01/10 10:09:01;;;;;;;33.45;18.25;;;;;;;-1.43;65.82;100938.31;4865082;29;20036;-84
2024/01/10 10:11:54;;;;;;;48.05;24.50;;;;;;;-1.47;64.93;100927.25;4889512;29;20052;-86
2024/01/10 10:14:39;;;;;;;24.27;12.43;;;;;;;-2.13;64.72;100923.25;4875767;29;20446;-84
2024/01/10 10:17:24;;;;;;;27.23;14.68;;;;;;;-1.97;65.36;100925.63;4897741;29;20389;-83
2024/01/10 10:20:11;;;;;;;30.92;16.20;;;;;;;-1.99;66.99;100919.69;4877761;29;20048;-85
2024/01/10 10:23:06;;;;;;;27.63;15.23;;;;;;;-1.66;66.90;100921.66;4891220;29;20060;-82
2024/01/10 10:25:51;;;;;;;18.42;11.10;;;;;;;-2.18;64.15;100914.94;4884053;29;20044;-82
2024/01/10 10:28:37;;;;;;;25.05;13.27;;;;;;;-1.88;64.76;100918.00;4885171;29;20478;-82
2024/01/10 10:31:23;;;;;;;47.47;25.05;;;;;;;-1.66;65.60;100909.50;4872757;29;20040;-85
2024/01/10 10:34:10;;;;;;;29.58;14.77;;;;;;;-1.50;65.04;100906.63;4875312;29;20037;-83
2024/01/10 10:36:56;;;;;;;31.27;18.00;;;;;;;-1.41;66.08;100903.34;4885886;29;20052;-82
2024/01/10 10:39:42;;;;;;;23.92;12.77;;;;;;;-1.13;64.68;100893.47;4875374;29;20398;-82
2024/01/10 10:42:28;;;;;;;17.48;9.77;;;;;;;-1.11;63.34;100901.22;4861793;29;20052;-82
2024/01/10 10:45:19;;;;;;;31.23;17.13;;;;;;;-1.07;63.70;100893.03;4852273;29;20474;-82
2024/01/10 10:48:07;;;;;;;40.47;19.35;;;;;;;-1.22;63.01;100897.63;4887442;29;20044;-84
2024/01/10 10:51:03;;;;;;;21.23;10.68;;;;;;;-1.88;63.04;100894.56;4872937;29;20054;-81
2024/01/10 10:53:49;;;;;;;18.35;9.48;;;;;;;-1.78;63.89;100889.53;4894641;29;20041;-83
2024/01/10 10:56:36;;;;;;;20.10;11.07;;;;;;;-1.79;65.29;100889.59;4867991;29;20423;-85
2024/01/10 10:59:22;;;;;;;16.05;8.80;;;;;;;-1.47;64.99;100882.94;4858528;29;20045;-82
2024/01/10 11:02:20;;;;;;;11.73;6.80;;;;;;;-1.54;62.86;100892.13;4864369;29;20386;-81
2024/01/10 11:05:06;;;;;;;18.02;7.90;;;;;;;-1.93;63.37;100888.00;4858401;29;20402;-83
2024/01/10 11:07:53;;;;;;;17.48;8.90;;;;;;;-1.63;64.46;100883.22;4858794;29;20048;-83
2024/01/10 11:10:40;;;;;;;17.15;8.98;;;;;;;-1.46;64.64;100884.59;4869898;29;20056;-82
2024/01/10 11:13:36;;;;;;;17.80;9.77;;;;;;;-1.07;63.99;100882.59;4871297;29;20391;-85
2024/01/10 11:16:37;;;;;;;11.95;6.13;;;;;;;-1.62;63.57;100878.81;4870621;29;20064;-85
2024/01/10 11:19:35;;;;;;;16.20;6.85;;;;;;;-1.57;64.29;100875.88;4871421;29;20395;-83
2024/01/10 11:22:51;;;;;;;10.10;5.72;;;;;;;-1.25;62.91;100868.31;4870244;29;20052;-83
2024/01/10 11:25:37;;;;;;;9.20;5.72;;;;;;;-1.42;63.06;100867.75;4870905;29;20455;-84
2024/01/10 11:28:25;;;;;;;10.48;6.18;;;;;;;-1.43;62.06;100873.94;4871312;29;20385;-83
2024/01/10 11:31:10;;;;;;;10.57;5.72;;;;;;;-1.24;63.58;100869.97;4867131;29;20075;-82
2024/01/10 11:33:57;;;;;;;10.13;6.00;;;;;;;-1.03;61.26;100862.34;4865052;29;20386;-83
2024/01/10 11:37:12;;;;;;;13.70;8.23;;;;;;;-0.89;60.12;100861.28;4857971;29;20056;-81
2024/01/10 11:39:58;;;;;;;12.05;6.78;;;;;;;-1.70;60.56;100868.94;4858084;29;20053;-83
2024/01/10 11:42:48;;;;;;;12.93;7.57;;;;;;;-1.74;61.82;100858.84;4865693;29;20439;-84
2024/01/10 11:45:34;;;;;;;2.20;2.05;;;;;;;-1.90;61.99;100854.72;4868338;29;20052;-83
2024/01/10 11:48:28;;;;;;;12.35;7.10;;;;;;;-1.80;62.25;100851.47;4877841;29;20107;-80
2024/01/10 11:51:16;;;;;;;10.60;6.53;;;;;;;-1.68;63.48;100842.75;4866891;29;20064;-81
2024/01/10 11:54:01;;;;;;;16.05;8.30;;;;;;;-1.33;63.02;100850.59;4859894;29;20049;-81
2024/01/10 11:56:47;;;;;;;11.05;6.53;;;;;;;-1.35;61.90;100844.66;4872327;29;20044;-82
2024/01/10 11:59:34;;;;;;;11.60;6.28;;;;;;;-1.37;60.72;100837.91;4870619;29;20049;-81
2024/01/10 12:02:21;;;;;;;13.38;7.97;;;;;;;-1.18;60.98;100843.44;4870724;29;20394;-83
2024/01/10 12:05:14;;;;;;;10.07;6.47;;;;;;;-0.97;60.22;100836.63;4871183;29;20382;-83
2024/01/10 12:08:08;;;;;;;11.40;7.38;;;;;;;-0.97;61.60;100838.41;4870967;29;20049;-81
2024/01/10 12:11:07;;;;;;;13.68;6.68;;;;;;;-0.80;59.92;100837.09;4872792;29;20451;-83
2024/01/10 12:13:52;;;;;;;13.05;7.80;;;;;;;-0.84;59.73;100839.13;4865528;29;20386;-82
2024/01/10 12:16:38;;;;;;;11.38;7.15;;;;;;;-0.99;60.44;100822.00;4870918;29;20447;-83
2024/01/10 12:19:24;;;;;;;13.27;7.88;;;;;;;-1.00;60.08;100822.97;4857651;29;20388;-82
2024/01/10 12:22:16;;;;;;;15.57;7.95;;;;;;;-0.87;59.62;100828.91;4865752;29;20374;-82
2024/01/10 12:25:06;;;;;;;16.38;8.75;;;;;;;-0.95;61.19;100829.47;4871126;29;20370;-84
2024/01/10 12:27:51;;;;;;;15.00;9.48;;;;;;;-0.75;62.02;100824.53;4870844;29;20076;-82
2024/01/10 12:30:36;;;;;;;17.05;9.93;;;;;;;-0.95;62.28;100826.03;4864785;29;20060;-81
2024/01/10 12:33:25;;;;;;;20.20;9.88;;;;;;;-0.99;61.98;100825.44;4870016;29;20067;-84
2024/01/10 12:36:17;;;;;;;14.77;9.30;;;;;;;-1.03;60.84;100826.63;4852384;29;20463;-82
2024/01/10 12:39:06;;;;;;;19.13;10.43;;;;;;;-1.12;62.29;100821.28;4869662;29;20044;-83
2024/01/10 12:41:51;;;;;;;18.10;9.98;;;;;;;-1.04;61.69;100817.13;4857191;29;20394;-81